Timeline UpdatesTrip UpdatesNews PostsPvt PostsTravel TipsAdmin PostsConv PostsFollowed PostsChat RequestsBlog PostsPNR Posts

Disclaimer
Search
 
 
Thu Jul 24, 2014 16:13:45 ISTHomeTrainsΣChainsAtlasPNRForumGalleryNewsFAQTripsMembersLoginFeedback
No Recent News for this Train
Other Trains in the News **new
Latest...
.
Fri May 09, 2014 (10:57PM)
⇐ Return Journey: Train# 14055

14056/Brahmaputra Mail

May 09 2014 (10:58PM)
Change Departure Station:
Change Arrival Station:
Post a Train Travel TipPost a Train Travel Tip **new
Post a Comment/Question/Picture/VideoPost a Comment/Question/Picture/Video
Inaugural Run
Tue Oct 01, 1974
Pantry/Catering
✓ Pantry Car Avbl
✓ Catering Avbl
RSA - Rake Sharing
NO RSA
Rake/Coach Composition
LOCO-SLR-GS-GS-GS-S1-S2-S3-S4-S5-S6-S7-S8-S9-S10-S11-PC-A1-B1-B2-B3-GS-GS-GS-SLR
Loco
GZB WAP-4 (DLI-KIUL); SGUJ WDP-4/4B/4D (KIUL-DBRG)
News    PNR    Forum    Time-Table    Availability    Fare Chart    Map    Arr/Dep History    Trips    Gallery    ΣChains    X/O    Timeline    
Travel Time: 52h 20m    59 halts    Distance: 2598 km    Avg Speed: 49 km/hr
Type: Mail/Express
Zone: NR/Northern
Departs @ 23:40
Platform# 16
SMTWTFS
Old Delhi Junction/DLI 
Arrives @ 04:00 +3 nights
Platform# 1
SMTWTFS
Dibrugarh/DBRG 

59 halts. 436 intermediate Stations between Old Delhi Junction and Dibrugarh

Show ALL intermediate Stations  Show Old Time-Table

#CodeStation NameX/OArrivesAvgDepartsAvgHaltPFDay#KmSpeedElevZoneAddress
1DLI»Old Delhi Junction (16)»  -23:40-1610.059219mNRNear Chandni Chowk Metro Station, Delhi NCT
2KRJKhurja Junction (4)  01:04-01:06-2m3282.782199mNCRBulandshahr, Uttar Pradesh
3ALJNAligarh Junction (4)XO  01:38-01:43-5m22126.273192mNCRAligarh, Uttar Pradesh
4TDLTundla Junction (5)XO  02:47-02:52-5m--2204.481167mNCRDistt.Firozabad, Uttar Pradesh
5SKBShikohabad Junction (4)O  03:19-03:21-2m22240.881166mNCRDistrict Firozabad, Uttar Pradesh
6CNBKanpur Central (10)X  05:45-05:55-10m--2435.578128mNCRKANPUR-208 001, Uttar Pradesh
7ALDAllahabad Junction (10)X  08:25-08:35-10m42629.974100mNCRAllahabad 211003, Uttar Pradesh
8MZPMirzapur (3)X  09:48-09:50-2m--2719.44288mNCRMirzapur, Uttar Pradesh
9MGSMughal Sarai Junction (8)  11:20-11:30-10m12782.67583mECRMughalsarai 232101, Uttar Pradesh
10DLNDildarnagar Junction (2)  12:16-12:18-2m--2840.37572mECRDildarnagar, Uttar Pradesh
11BXRBuxar (3)X  12:47-12:49-2m--2876.58467mECRBuxar, Bihar
12ARAAra Junction (3)X  13:38-13:40-2m--2945.04563mECRarrah( 06182-233411), Bihar
13PNBEPatna Junction (10)X  14:45-14:55-10m12993.94257mECRPatna 800001, Bihar
14PNCPatna Saheb (3)  15:09-15:11-2m221003.87859mECRPatna, Bihar
15MKAMokama Junction (3)  16:12-16:14-2m--21083.23748mECRPatna, Bihar
16KIULKiul Junction (5)17:10-17:30-20m421117.46653mECRDist. Lakhisarai, Bihar
17AHAAbhaipur  17:51-17:53-2m--21140.46052mERAbhaipur, Bihar
18JMPJamalpur Junction (4)X  18:15-18:30-15m--21162.26559mERJamalpur 06344-243101, Bihar
19SGGSultanGanj  18:57-18:59-2m--21191.33342mERSultanganj, Bihar
20BGPBhagalpur Junction (6)  19:45-19:57-12m121216.36949mERBhagalpur, Bihar
21CLGKahalgaon (2)  20:23-20:25-2m121246.33744mERBhagalpur, Bihar
22SBGSahibganj Junction (3)X  21:37-21:45-8m121290.24838mERSahibganj, Jharkhand
23BHWBarharwa Junction (3)  22:53-22:55-2m221344.74036mERBarharwa, Jharkhand
24NFKNew Farakka Junction (3)X  23:22-23:24-2m221362.73832mERDist - Murshidabad, West Bengal
25MLDTMalda Town (5)X  00:20-00:40-20m--31397.87830mERDist - Malda, West Bengal
26BOEBarsoi Junction (3)X  01:50-01:52-2m--31488.37937mNFRdist- katihar, Bihar
27KNEKishanGanj (3)  02:36-02:41-5m--31545.95052mNFRKishanganj, Bihar
28NJPNew Jalpaiguri Junction (8)  04:25-04:45-20m131633.252114mNFRCity-Siliguri . Dist-Jalpaiguri, West Bengal
29JPEJalpaiguri Road (2)  05:24-05:26-2m131666.77189mNFRdist - Jalpaiguri 735102, West Bengal
30DQGDhupguri (2)  05:53-05:58-5m--31698.56775mNFRDist - Jalpaiguri, West Bengal
31FLKFalakata (3)  06:18-06:20-2m--31720.94567mNFRDist - Alipurduar, West Bengal
32NCBNew Cooch Behar Junction (5)  07:10-07:15-5m--31758.75647mNFRDist : Cooch Behar-736101, West Bengal
33NOQNew Alipurduar (2)  07:35-07:40-5m--31777.47848mNFRDist - Alipurduar - 736121, West Bengal
34GOGHGossaigaon Hat (3)  08:15-08:17-2m--31823.073 NFRKokrajhar, Assam
35FKMFakiragram Junction (4)X  08:36-08:38-2m331846.35944mNFR03661-283454, Assam
36KOJKokrajhar (3)X  08:48-08:50-2m--31856.22246mNFR03661-270618, Assam
37NBQNew Bongaigaon Junction (4)  10:05-10:15-10m--31884.12458mNFR783381., Assam
38BNGNBongaigaon (3)  10:21-10:23-2m--31886.56360mNFRBongaigaon, Assam
39BJFBijniX  10:37-10:39-2m--31901.25854mNFRDist: Chirang, Assam
40BPRDBarpeta Road  11:07-11:12-5m--31928.15849mNFRHowli, Assam
41NLVNalbariX  12:02-12:04-2m--31976.54754mNFRNalbari, Assam
42RNYRangiya Junction (5)X  12:25-12:35-10m--31993.03058mNFRRangia, Assam
43KYQKamakhya Junction (4)  13:57-14:02-5m--32033.71855mNFRDist - KAMRUP, Assam
44GHYGuwahati (7)X  14:25-14:40-15m--32040.65060mNFRGuwahati, Assam
45DGUDigaru  15:20-15:22-2m--32074.25658mNFRDigaru, Assam
46JIDJagi Road (2)  15:47-15:49-2m--32097.76662mNFRJagiroad, Assam
47CPKChaparmukh Junction (3)X  16:20-16:25-5m--32131.75265mNFRChaparmukh. Dist. Nagaon. Changing point for HBN/SHTT, Assam
48KWMKampurX  16:45-16:47-2m--32148.95968mNFRKampur, Assam
49JMKJamunamukhX  16:58-17:00-2m--32159.73570mNFRNational Highway 36, Assam
50HJIHojai (2)  17:28-17:30-2m--32176.26078mNFRHojai Rd. Ph:- 03674-252136., Assam
51LKALankaX  17:44-17:46-2m--32190.22789mNFRLanka, Assam
52LMGLumding Junction (5)O  18:55-19:10-15m332221.434142mNFRLumding, Assam
53DPUDiphu (2)  20:06-20:08-2m--32253.560180mNFRDiphu, Assam
54DMVDimapur (3)  20:45-20:55-10m--32290.853153mNFRDimapur, Nagaland
55BXJBokajan (2)  21:11-21:13-2m--32305.044138mNFRBokajan, Assam
56FKGFurkating Junction (2)  22:30-22:32-2m--32361.053 NFRK B Rd, Assam
57MXNMariani Junction (4)X  23:15-23:25-10m132399.072117mNFRDist. Jorhat Pin-785634, Assam
58SLGRSimaluguri Junction (3)  00:10-00:15-5m142453.26899mNFRSimaluguri, Assam
59BOJBhojo  00:45-00:50-5m--42487.139107mNFRBhojo Railway Station, Assam
60NTSKNew Tinsukia Junction (3)  02:35-02:45-10m--42555.734124mNFRDist: Tinsukia, Assam
61DBRG•Dibrugarh (4)•  04:00--142597.7-108mNFRDibrugarh 786003, Assam
Scroll to Top
Scroll to Bottom